Time;durP1;ratioP1;P1;durP2;ratioP2;P2;SDS_P1;SDS_P2;PMS_P1;PMS_P2;Temp;Humidity;BMP_temperature;BMP_pressure;BME280_temperature;BME280_humidity;BME280_pressure;Samples;Min_cycle;Max_cycle;Signal;HPM_P1;HPM_P2
2024/01/09 00:00:37;;;;;;;4.32;3.38;;;;;;;;;;5031378;28;20268;-77
2024/01/09 00:03:05;;;;;;;6.50;4.13;;;;;;;;;;5031047;28;20289;-77
2024/01/09 00:05:34;;;;;;;7.28;4.90;;;;;;;;;;5031244;28;20229;-77
2024/01/09 00:08:01;;;;;;;4.00;3.45;;;;;;;;;;5031118;28;20221;-77
2024/01/09 00:10:28;;;;;;;5.75;3.78;;;;;;;;;;5031547;28;20734;-77
2024/01/09 00:12:57;;;;;;;7.88;4.00;;;;;;;;;;5034896;28;20214;-77
2024/01/09 00:15:24;;;;;;;4.55;3.17;;;;;;;;;;5035865;28;20206;-77
2024/01/09 00:17:52;;;;;;;3.78;3.25;;;;;;;;;;5035648;28;20233;-76
2024/01/09 00:20:20;;;;;;;5.07;3.70;;;;;;;;;;5035456;28;20252;-77
2024/01/09 00:22:49;;;;;;;4.80;3.47;;;;;;;;;;5036353;28;20297;-77
2024/01/09 00:25:18;;;;;;;4.10;3.55;;;;;;;;;;5035614;28;20655;-77
2024/01/09 00:27:46;;;;;;;3.70;3.08;;;;;;;;;;5035599;28;20765;-77
2024/01/09 00:30:14;;;;;;;5.78;4.30;;;;;;;;;;5035517;28;20218;-77
2024/01/09 00:32:48;;;;;;;8.50;4.93;;;;;;;;;;5035448;28;20217;-77
2024/01/09 00:35:16;;;;;;;5.10;4.03;;;;;;;;;;5035683;28;20292;-76
2024/01/09 00:37:44;;;;;;;6.50;3.72;;;;;;;;;;5035848;28;20238;-77
2024/01/09 00:40:13;;;;;;;7.53;4.65;;;;;;;;;;5035262;28;20313;-77
2024/01/09 00:42:40;;;;;;;5.30;3.58;;;;;;;;;;5033526;28;20224;-76
2024/01/09 00:45:09;;;;;;;3.55;2.58;;;;;;;;;;5035882;28;20213;-77
2024/01/09 00:47:37;;;;;;;5.03;3.75;;;;;;;;;;5035068;28;20244;-77
2024/01/09 00:50:05;;;;;;;5.95;4.63;;;;;;;;;;5034691;28;20200;-75
2024/01/09 00:52:32;;;;;;;4.90;3.40;;;;;;;;;;5034465;28;20305;-76
2024/01/09 00:54:59;;;;;;;5.18;4.10;;;;;;;;;;5034161;28;20293;-77
2024/01/09 00:57:28;;;;;;;4.72;3.58;;;;;;;;;;5032903;28;20317;-77
2024/01/09 00:59:56;;;;;;;6.85;3.95;;;;;;;;;;5028330;28;20227;-77
2024/01/09 01:02:23;;;;;;;5.30;3.90;;;;;;;;;;5032698;28;20213;-77
2024/01/09 01:04:50;;;;;;;7.85;5.10;;;;;;;;;;5034690;28;20206;-76
2024/01/09 01:07:18;;;;;;;6.10;4.75;;;;;;;;;;5034046;28;20230;-77
2024/01/09 01:09:46;;;;;;;10.82;5.82;;;;;;;;;;5034232;28;20210;-77
2024/01/09 01:12:13;;;;;;;6.78;4.57;;;;;;;;;;5034435;28;20218;-76
2024/01/09 01:14:42;;;;;;;6.20;4.45;;;;;;;;;;5034062;28;20217;-76
2024/01/09 01:17:09;;;;;;;6.00;4.20;;;;;;;;;;5034319;28;20230;-77
2024/01/09 01:19:37;;;;;;;6.65;5.15;;;;;;;;;;5034717;28;20671;-76
2024/01/09 01:22:04;;;;;;;7.50;4.38;;;;;;;;;;5033831;28;20210;-77
2024/01/09 01:24:32;;;;;;;4.20;3.50;;;;;;;;;;5034582;28;20220;-77
2024/01/09 01:26:59;;;;;;;5.70;4.55;;;;;;;;;;5034855;28;20575;-77
2024/01/09 01:29:29;;;;;;;7.57;4.75;;;;;;;;;;5032995;28;20211;-77
2024/01/09 01:31:58;;;;;;;4.43;3.67;;;;;;;;;;5035198;28;20245;-77
2024/01/09 01:34:25;;;;;;;6.28;3.70;;;;;;;;;;5034390;28;20222;-77
2024/01/09 01:36:52;;;;;;;5.13;3.20;;;;;;;;;;5034492;28;20587;-77
2024/01/09 01:39:20;;;;;;;7.18;6.35;;;;;;;;;;5033695;28;20210;-77
2024/01/09 01:41:48;;;;;;;5.57;4.38;;;;;;;;;;5034818;28;20360;-76
2024/01/09 01:44:18;;;;;;;4.88;3.88;;;;;;;;;;5034214;28;20224;-76
2024/01/09 01:46:47;;;;;;;5.20;4.70;;;;;;;;;;5035053;28;20404;-77
2024/01/09 01:49:18;;;;;;;5.57;3.55;;;;;;;;;;5033855;28;20212;-77
2024/01/09 01:51:47;;;;;;;3.83;2.97;;;;;;;;;;5034470;28;20207;-77
2024/01/09 01:54:16;;;;;;;4.00;3.33;;;;;;;;;;5034588;28;20216;-77
2024/01/09 01:56:44;;;;;;;3.67;3.38;;;;;;;;;;5033781;28;20212;-76
2024/01/09 01:59:12;;;;;;;4.40;3.28;;;;;;;;;;5031362;28;20206;-77
2024/01/09 02:01:40;;;;;;;3.72;3.20;;;;;;;;;;5032330;28;20231;-76
2024/01/09 02:04:09;;;;;;;5.57;3.22;;;;;;;;;;5033904;28;20204;-76
2024/01/09 02:06:38;;;;;;;4.07;2.85;;;;;;;;;;5033778;28;20592;-77
2024/01/09 02:09:05;;;;;;;4.38;3.40;;;;;;;;;;5033207;28;20210;-76
2024/01/09 02:11:33;;;;;;;9.32;5.95;;;;;;;;;;5032651;28;20225;-77
2024/01/09 02:14:01;;;;;;;6.30;4.03;;;;;;;;;;5033047;28;20229;-77
2024/01/09 02:16:28;;;;;;;6.38;3.50;;;;;;;;;;5031418;28;20217;-77
2024/01/09 02:18:56;;;;;;;5.07;3.20;;;;;;;;;;5032390;28;20213;-76
2024/01/09 02:21:23;;;;;;;3.70;3.30;;;;;;;;;;5032978;28;20317;-77
2024/01/09 02:23:52;;;;;;;5.53;4.40;;;;;;;;;;5033208;28;20305;-77
2024/01/09 02:26:22;;;;;;;3.72;3.42;;;;;;;;;;5033201;28;20206;-77
2024/01/09 02:28:54;;;;;;;6.00;4.32;;;;;;;;;;5033412;28;20575;-77
2024/01/09 02:31:23;;;;;;;4.50;4.00;;;;;;;;;;5033576;28;20690;-77
2024/01/09 02:33:51;;;;;;;6.07;4.07;;;;;;;;;;5032387;28;20225;-77
2024/01/09 02:36:19;;;;;;;7.78;4.80;;;;;;;;;;5033579;28;20233;-77
2024/01/09 02:38:46;;;;;;;4.75;3.30;;;;;;;;;;5032654;28;20222;-76
2024/01/09 02:41:14;;;;;;;2.47;2.28;;;;;;;;;;5032515;28;20232;-77
2024/01/09 02:43:41;;;;;;;7.68;4.65;;;;;;;;;;5032663;28;20206;-77
2024/01/09 02:46:08;;;;;;;5.45;4.53;;;;;;;;;;5032649;28;20233;-77
2024/01/09 02:48:37;;;;;;;6.00;4.75;;;;;;;;;;5032633;28;20321;-76
2024/01/09 02:51:05;;;;;;;8.90;5.53;;;;;;;;;;5032786;28;20195;-77
2024/01/09 02:53:33;;;;;;;4.82;3.83;;;;;;;;;;5032047;28;20210;-76
2024/01/09 02:56:00;;;;;;;6.20;4.97;;;;;;;;;;5033048;28;20273;-76
2024/01/09 02:58:27;;;;;;;7.32;5.05;;;;;;;;;;5030835;28;20230;-76
2024/01/09 03:00:55;;;;;;;7.40;5.38;;;;;;;;;;5032056;28;20234;-76
2024/01/09 03:03:23;;;;;;;6.85;4.70;;;;;;;;;;5035354;28;20253;-76
2024/01/09 03:05:51;;;;;;;8.18;5.22;;;;;;;;;;5032204;28;20206;-77
2024/01/09 03:08:19;;;;;;;9.07;5.22;;;;;;;;;;5031898;28;20317;-77
2024/01/09 03:10:46;;;;;;;6.38;4.82;;;;;;;;;;5031613;28;20206;-76
2024/01/09 03:13:14;;;;;;;12.15;5.68;;;;;;;;;;5032164;28;20208;-77
2024/01/09 03:15:42;;;;;;;7.50;4.57;;;;;;;;;;5032099;28;20215;-77
2024/01/09 03:18:09;;;;;;;6.20;5.28;;;;;;;;;;5032540;28;20236;-77
2024/01/09 03:20:37;;;;;;;5.75;4.25;;;;;;;;;;5031705;28;20202;-76
2024/01/09 03:23:05;;;;;;;7.85;5.10;;;;;;;;;;5031695;28;20228;-77
2024/01/09 03:25:33;;;;;;;8.45;5.15;;;;;;;;;;5032070;28;20210;-77
2024/01/09 03:28:00;;;;;;;10.25;5.38;;;;;;;;;;5032068;28;20222;-77
2024/01/09 03:30:29;;;;;;;6.63;5.50;;;;;;;;;;5031062;28;20203;-77
2024/01/09 03:32:57;;;;;;;8.52;4.85;;;;;;;;;;5032463;28;20662;-76
2024/01/09 03:35:24;;;;;;;9.13;5.93;;;;;;;;;;5032114;28;20585;-77
2024/01/09 03:37:52;;;;;;;6.05;4.38;;;;;;;;;;5031614;28;20237;-76
2024/01/09 03:40:21;;;;;;;7.15;5.07;;;;;;;;;;5031876;28;20206;-76
2024/01/09 03:42:48;;;;;;;10.50;5.38;;;;;;;;;;5031841;28;20232;-77
2024/01/09 03:45:15;;;;;;;6.38;4.60;;;;;;;;;;5031693;28;20206;-77
2024/01/09 03:47:43;;;;;;;8.02;5.93;;;;;;;;;;5030952;28;20625;-75
2024/01/09 03:50:11;;;;;;;8.93;5.45;;;;;;;;;;5031370;28;20210;-77
2024/01/09 03:52:38;;;;;;;9.05;6.18;;;;;;;;;;5031994;28;20575;-77
2024/01/09 03:55:06;;;;;;;9.27;5.63;;;;;;;;;;5031779;28;20289;-77
2024/01/09 03:57:35;;;;;;;7.03;4.75;;;;;;;;;;5031250;28;20226;-77
2024/01/09 04:00:03;;;;;;;8.85;5.38;;;;;;;;;;5028989;28;20213;-76
2024/01/09 04:02:30;;;;;;;10.27;6.00;;;;;;;;;;5033862;28;20317;-77
2024/01/09 04:04:58;;;;;;;7.68;5.47;;;;;;;;;;5034319;28;20314;-76
2024/01/09 04:07:25;;;;;;;12.65;6.20;;;;;;;;;;5031383;28;20232;-76
2024/01/09 04:09:53;;;;;;;8.82;6.30;;;;;;;;;;5031862;28;20216;-77
2024/01/09 04:12:20;;;;;;;7.60;5.55;;;;;;;;;;5030925;28;20210;-77
2024/01/09 04:14:49;;;;;;;7.25;4.80;;;;;;;;;;5031716;28;20213;-77
2024/01/09 04:17:16;;;;;;;11.80;6.05;;;;;;;;;;5031327;28;20596;-77
2024/01/09 04:19:44;;;;;;;7.90;4.88;;;;;;;;;;5030820;28;20211;-76
2024/01/09 04:22:11;;;;;;;9.63;5.68;;;;;;;;;;5031291;28;20226;-77
2024/01/09 04:24:38;;;;;;;7.43;5.13;;;;;;;;;;5031353;28;20210;-77
2024/01/09 04:27:06;;;;;;;7.82;5.45;;;;;;;;;;5031279;28;20226;-77
2024/01/09 04:29:34;;;;;;;8.63;5.50;;;;;;;;;;5030740;28;20596;-77
2024/01/09 04:32:03;;;;;;;9.93;5.50;;;;;;;;;;5031780;28;20199;-77
2024/01/09 04:34:30;;;;;;;7.65;5.30;;;;;;;;;;5030117;28;20289;-77
2024/01/09 04:36:58;;;;;;;6.75;4.82;;;;;;;;;;5031087;28;20222;-76
2024/01/09 04:39:25;;;;;;;8.18;5.18;;;;;;;;;;5030966;28;20207;-77
2024/01/09 04:41:52;;;;;;;8.43;5.70;;;;;;;;;;5029262;28;20298;-77
2024/01/09 04:44:20;;;;;;;6.60;4.88;;;;;;;;;;5032913;28;20206;-76
2024/01/09 04:46:47;;;;;;;9.43;5.75;;;;;;;;;;5031160;28;20226;-77
2024/01/09 04:49:16;;;;;;;7.18;5.30;;;;;;;;;;5030552;28;20218;-77
2024/01/09 04:51:43;;;;;;;5.10;4.30;;;;;;;;;;5030976;28;20203;-77
2024/01/09 04:54:11;;;;;;;8.48;5.65;;;;;;;;;;5031318;28;20558;-77
2024/01/09 04:56:38;;;;;;;6.57;4.68;;;;;;;;;;5028157;28;20202;-76
2024/01/09 04:59:06;;;;;;;8.02;5.97;;;;;;;;;;5034070;28;20678;-76
2024/01/09 05:01:33;;;;;;;7.45;5.20;;;;;;;;;;5034684;28;20212;-77
2024/01/09 05:04:01;;;;;;;8.30;5.22;;;;;;;;;;5031625;28;20219;-77
2024/01/09 05:06:29;;;;;;;8.18;5.00;;;;;;;;;;5032730;28;20213;-76
2024/01/09 05:08:57;;;;;;;9.45;4.82;;;;;;;;;;5033039;28;20220;-77
2024/01/09 05:11:24;;;;;;;7.97;5.55;;;;;;;;;;5033690;28;20282;-77
2024/01/09 05:13:52;;;;;;;6.10;4.40;;;;;;;;;;5034043;28;20291;-77
2024/01/09 05:16:19;;;;;;;10.82;5.40;;;;;;;;;;5033993;28;20600;-76
2024/01/09 05:18:47;;;;;;;8.05;5.47;;;;;;;;;;5033542;28;20236;-77
2024/01/09 05:21:14;;;;;;;7.10;5.20;;;;;;;;;;5033720;28;20206;-77
2024/01/09 05:23:43;;;;;;;7.75;5.65;;;;;;;;;;5034068;28;20598;-77
2024/01/09 05:26:10;;;;;;;5.13;4.15;;;;;;;;;;5033610;28;20202;-76
2024/01/09 05:28:38;;;;;;;8.20;5.05;;;;;;;;;;5034278;28;20237;-77
2024/01/09 05:31:07;;;;;;;6.72;4.93;;;;;;;;;;5034752;28;20212;-77
2024/01/09 05:33:35;;;;;;;8.15;5.30;;;;;;;;;;5034220;28;20206;-77
2024/01/09 05:36:03;;;;;;;7.68;4.57;;;;;;;;;;5034575;28;20211;-76
2024/01/09 05:38:30;;;;;;;10.25;6.55;;;;;;;;;;5032604;28;20226;-75
2024/01/09 05:40:59;;;;;;;7.18;5.00;;;;;;;;;;5034073;28;20659;-77
2024/01/09 05:43:27;;;;;;;8.05;5.53;;;;;;;;;;5036216;28;20226;-76
2024/01/09 05:45:54;;;;;;;7.70;5.57;;;;;;;;;;5034088;28;20220;-77
2024/01/09 05:48:22;;;;;;;6.53;4.85;;;;;;;;;;5033588;28;20252;-77
2024/01/09 05:50:49;;;;;;;9.50;5.65;;;;;;;;;;5034089;28;20210;-76
2024/01/09 05:53:17;;;;;;;5.40;4.90;;;;;;;;;;5033117;28;20202;-76
2024/01/09 05:55:44;;;;;;;6.88;4.40;;;;;;;;;;5027853;28;20294;-76
2024/01/09 05:58:13;;;;;;;7.57;4.90;;;;;;;;;;5026980;28;20276;-76
2024/01/09 06:00:40;;;;;;;7.40;4.22;;;;;;;;;;5030431;28;20682;-77
2024/01/09 06:03:08;;;;;;;5.97;4.10;;;;;;;;;;5033209;28;20226;-76
2024/01/09 06:05:35;;;;;;;6.50;4.30;;;;;;;;;;5036354;28;20211;-76
2024/01/09 06:08:03;;;;;;;4.47;4.03;;;;;;;;;;5034161;28;20248;-74
2024/01/09 06:10:30;;;;;;;5.95;4.45;;;;;;;;;;5032799;28;20206;-77
2024/01/09 06:12:58;;;;;;;6.50;4.38;;;;;;;;;;5033888;28;20202;-77
2024/01/09 06:15:27;;;;;;;8.75;6.18;;;;;;;;;;5029437;28;20604;-77
2024/01/09 06:17:54;;;;;;;6.57;4.35;;;;;;;;;;5033255;28;20226;-77
2024/01/09 06:20:22;;;;;;;6.18;4.55;;;;;;;;;;5033327;28;20583;-77
2024/01/09 06:22:49;;;;;;;5.60;4.00;;;;;;;;;;5033742;28;20217;-75
2024/01/09 06:25:17;;;;;;;3.80;3.28;;;;;;;;;;5033906;28;20202;-77
2024/01/09 06:27:44;;;;;;;7.72;4.80;;;;;;;;;;5033442;28;20661;-77
2024/01/09 06:30:13;;;;;;;5.95;4.40;;;;;;;;;;5033302;28;20206;-77
2024/01/09 06:32:42;;;;;;;7.00;4.35;;;;;;;;;;5031422;28;20207;-77
2024/01/09 06:35:10;;;;;;;6.28;4.13;;;;;;;;;;5033967;28;20217;-77
2024/01/09 06:37:38;;;;;;;8.70;4.85;;;;;;;;;;5033112;28;20226;-76
2024/01/09 06:40:07;;;;;;;7.57;4.93;;;;;;;;;;5033349;28;20199;-77
2024/01/09 06:42:34;;;;;;;5.75;4.13;;;;;;;;;;5033036;28;20208;-77
2024/01/09 06:45:02;;;;;;;7.40;4.68;;;;;;;;;;5033270;28;20591;-76
2024/01/09 06:47:29;;;;;;;7.18;4.88;;;;;;;;;;5032768;28;20226;-77
2024/01/09 06:49:58;;;;;;;5.85;4.47;;;;;;;;;;5033320;28;20276;-77
2024/01/09 06:52:26;;;;;;;9.38;4.85;;;;;;;;;;5032672;28;20755;-76
2024/01/09 06:54:53;;;;;;;5.40;4.38;;;;;;;;;;5032705;28;20202;-77
2024/01/09 06:57:20;;;;;;;5.53;4.45;;;;;;;;;;5032843;28;20606;-77
2024/01/09 06:59:49;;;;;;;4.95;4.07;;;;;;;;;;5032283;28;20209;-77
2024/01/09 07:02:16;;;;;;;9.93;5.00;;;;;;;;;;5030008;28;20214;-77
2024/01/09 07:04:44;;;;;;;9.95;5.38;;;;;;;;;;5036355;28;20230;-77
2024/01/09 07:07:13;;;;;;;7.28;4.80;;;;;;;;;;5032986;28;20226;-77
2024/01/09 07:09:41;;;;;;;7.68;4.65;;;;;;;;;;5033409;28;20213;-77
2024/01/09 07:12:09;;;;;;;10.63;8.45;;;;;;;;;;5032220;28;20658;-77
2024/01/09 07:14:36;;;;;;;6.72;5.80;;;;;;;;;;5033701;28;20216;-77
2024/01/09 07:17:04;;;;;;;7.75;5.80;;;;;;;;;;5037881;28;20222;-76
2024/01/09 07:19:32;;;;;;;16.00;11.27;;;;;;;;;;5035623;28;20224;-77
2024/01/09 07:22:00;;;;;;;35.13;20.23;;;;;;;;;;5035750;28;20208;-77
2024/01/09 07:24:28;;;;;;;13.00;7.85;;;;;;;;;;5036137;28;20230;-77
2024/01/09 07:26:56;;;;;;;10.80;6.38;;;;;;;;;;5036833;28;20240;-77
2024/01/09 07:29:23;;;;;;;12.93;8.93;;;;;;;;;;5036725;28;20500;-77
2024/01/09 07:31:51;;;;;;;9.20;5.82;;;;;;;;;;5037234;28;20216;-77
2024/01/09 07:34:18;;;;;;;11.05;6.20;;;;;;;;;;5037736;28;20207;-78
2024/01/09 07:36:45;;;;;;;14.77;9.52;;;;;;;;;;5037321;28;20256;-77
2024/01/09 07:39:13;;;;;;;10.20;6.40;;;;;;;;;;5036552;28;20216;-78
2024/01/09 07:41:42;;;;;;;9.18;5.60;;;;;;;;;;5035109;28;20210;-76
2024/01/09 07:44:09;;;;;;;8.30;5.53;;;;;;;;;;5037042;28;20257;-77
2024/01/09 07:46:37;;;;;;;12.05;8.00;;;;;;;;;;5035213;28;20332;-76
2024/01/09 07:49:04;;;;;;;11.82;7.25;;;;;;;;;;5034143;28;20215;-77
2024/01/09 07:51:32;;;;;;;10.60;8.35;;;;;;;;;;5034202;28;20213;-77
2024/01/09 07:54:00;;;;;;;8.05;5.90;;;;;;;;;;5033316;28;20253;-77
2024/01/09 07:56:27;;;;;;;7.30;5.38;;;;;;;;;;5033677;28;20217;-77
2024/01/09 07:58:56;;;;;;;7.35;5.43;;;;;;;;;;5035727;28;20222;-77
2024/01/09 08:01:24;;;;;;;5.30;4.03;;;;;;;;;;5034055;28;20217;-78
2024/01/09 08:03:52;;;;;;;4.30;3.90;;;;;;;;;;5031555;28;20207;-77
2024/01/09 08:06:19;;;;;;;8.90;5.45;;;;;;;;;;5032252;28;20212;-77
2024/01/09 08:08:46;;;;;;;6.65;4.72;;;;;;;;;;5031794;28;20230;-77
2024/01/09 08:11:14;;;;;;;5.90;5.07;;;;;;;;;;5030748;28;20292;-76
2024/01/09 08:13:42;;;;;;;6.68;4.97;;;;;;;;;;5032434;28;20252;-76
2024/01/09 08:16:11;;;;;;;7.55;6.68;;;;;;;;;;5031681;28;20675;-77
2024/01/09 08:18:38;;;;;;;6.50;4.10;;;;;;;;;;5031943;28;20226;-77
2024/01/09 08:21:06;;;;;;;6.38;4.38;;;;;;;;;;5032303;28;20214;-76
2024/01/09 08:23:33;;;;;;;7.68;5.22;;;;;;;;;;5033330;28;20207;-77
2024/01/09 08:26:02;;;;;;;8.75;4.82;;;;;;;;;;5036869;28;20257;-78
2024/01/09 08:28:29;;;;;;;7.25;6.07;;;;;;;;;;5038222;28;20222;-77
2024/01/09 08:30:56;;;;;;;7.38;5.85;;;;;;;;;;5039414;28;20206;-78
2024/01/09 08:33:25;;;;;;;8.45;5.43;;;;;;;;;;5040932;28;20293;-78
2024/01/09 08:35:53;;;;;;;7.93;5.47;;;;;;;;;;5042343;28;20205;-78
2024/01/09 08:38:20;;;;;;;8.10;4.88;;;;;;;;;;5042349;28;20250;-78
2024/01/09 08:40:52;;;;;;;5.70;4.18;;;;;;;;;;5043171;28;20214;-78
2024/01/09 08:43:20;;;;;;;6.72;4.82;;;;;;;;;;5043153;28;20245;-77
2024/01/09 08:45:48;;;;;;;6.97;5.30;;;;;;;;;;5044478;28;20232;-78
2024/01/09 08:48:16;;;;;;;8.27;5.63;;;;;;;;;;5043740;28;20245;-77
2024/01/09 08:50:45;;;;;;;7.25;5.22;;;;;;;;;;5042842;28;20293;-78
2024/01/09 08:53:12;;;;;;;6.45;5.30;;;;;;;;;;5044150;28;20652;-78
2024/01/09 08:55:40;;;;;;;9.18;5.00;;;;;;;;;;5040496;28;20293;-77
2024/01/09 08:58:08;;;;;;;7.03;5.00;;;;;;;;;;5043129;28;20276;-78
2024/01/09 09:00:35;;;;;;;8.23;5.53;;;;;;;;;;5046295;28;20263;-79
2024/01/09 09:03:03;;;;;;;7.10;5.38;;;;;;;;;;5045900;28;20270;-78
2024/01/09 09:05:30;;;;;;;8.18;5.95;;;;;;;;;;5037892;28;20226;-77
2024/01/09 09:07:59;;;;;;;9.60;5.45;;;;;;;;;;5035445;28;20235;-77
2024/01/09 09:10:27;;;;;;;6.70;4.10;;;;;;;;;;5040857;28;20573;-78
2024/01/09 09:12:54;;;;;;;8.35;5.65;;;;;;;;;;5040075;28;20218;-77
2024/01/09 09:15:21;;;;;;;5.78;4.30;;;;;;;;;;5039860;28;20206;-78
2024/01/09 09:17:49;;;;;;;4.18;3.78;;;;;;;;;;5039718;28;20256;-78
2024/01/09 09:20:17;;;;;;;7.00;4.68;;;;;;;;;;5039920;28;20289;-77
2024/01/09 09:22:44;;;;;;;5.57;3.90;;;;;;;;;;5041200;28;20632;-78
2024/01/09 09:25:14;;;;;;;5.55;4.78;;;;;;;;;;5041563;28;20798;-77
2024/01/09 09:27:42;;;;;;;6.75;5.13;;;;;;;;;;5037781;28;20230;-79
2024/01/09 09:30:11;;;;;;;6.57;5.07;;;;;;;;;;5041419;28;20211;-78
2024/01/09 09:32:38;;;;;;;6.72;4.57;;;;;;;;;;5041193;28;20244;-77
2024/01/09 09:35:07;;;;;;;4.03;3.58;;;;;;;;;;5041406;28;20205;-78
2024/01/09 09:37:34;;;;;;;5.18;4.13;;;;;;;;;;5041986;28;20821;-78
2024/01/09 09:40:02;;;;;;;6.28;3.88;;;;;;;;;;5041290;28;20206;-78
2024/01/09 09:42:32;;;;;;;5.00;3.25;;;;;;;;;;5043233;28;20274;-78
2024/01/09 09:45:02;;;;;;;4.03;3.42;;;;;;;;;;5043649;28;20607;-79
2024/01/09 09:47:30;;;;;;;4.43;3.00;;;;;;;;;;5043663;28;20233;-78
2024/01/09 09:49:58;;;;;;;4.70;3.63;;;;;;;;;;5045051;28;20253;-78
2024/01/09 09:52:29;;;;;;;6.70;4.18;;;;;;;;;;5046891;28;20293;-78
2024/01/09 09:54:57;;;;;;;6.25;4.22;;;;;;;;;;5044497;28;20211;-77
2024/01/09 09:57:25;;;;;;;6.53;4.78;;;;;;;;;;5044402;28;20853;-78
2024/01/09 09:59:53;;;;;;;4.38;3.72;;;;;;;;;;5045054;28;20237;-78
2024/01/09 10:02:25;;;;;;;9.77;6.32;;;;;;;;;;5045415;28;20690;-79
2024/01/09 10:04:53;;;;;;;7.22;6.07;;;;;;;;;;5046907;28;20218;-79
2024/01/09 10:07:22;;;;;;;8.02;4.93;;;;;;;;;;5046778;28;20297;-79
2024/01/09 10:09:53;;;;;;;3.88;3.47;;;;;;;;;;5045988;28;20271;-79
2024/01/09 10:12:24;;;;;;;4.50;3.85;;;;;;;;;;5046663;28;20214;-78
2024/01/09 10:15:08;;;;;;;4.32;3.85;;;;;;;;;;5046179;28;20206;-78
2024/01/09 10:17:36;;;;;;;3.88;3.47;;;;;;;;;;5046187;28;20253;-79
2024/01/09 10:20:04;;;;;;;4.57;3.30;;;;;;;;;;5042561;28;20230;-78
2024/01/09 10:22:35;;;;;;;4.25;3.33;;;;;;;;;;5045546;28;20581;-79
2024/01/09 10:25:05;;;;;;;5.65;3.45;;;;;;;;;;5045700;28;20202;-79
2024/01/09 10:27:36;;;;;;;4.43;3.10;;;;;;;;;;5045835;28;20230;-79
2024/01/09 10:30:06;;;;;;;5.15;4.60;;;;;;;;;;5045982;28;20202;-77
2024/01/09 10:32:34;;;;;;;5.40;4.53;;;;;;;;;;5045750;28;20274;-78
2024/01/09 10:35:03;;;;;;;4.10;3.60;;;;;;;;;;5045475;28;20229;-76
2024/01/09 10:37:31;;;;;;;4.05;3.58;;;;;;;;;;5045586;28;20234;-78
2024/01/09 10:39:59;;;;;;;4.93;4.05;;;;;;;;;;5045236;28;20210;-79
2024/01/09 10:42:30;;;;;;;4.82;4.40;;;;;;;;;;5045596;28;20702;-79
2024/01/09 10:44:59;;;;;;;5.20;3.90;;;;;;;;;;5045499;28;20248;-78
2024/01/09 10:47:29;;;;;;;4.95;3.75;;;;;;;;;;5044194;28;20310;-79
2024/01/09 10:49:57;;;;;;;5.68;5.07;;;;;;;;;;5045646;28;20217;-79
2024/01/09 10:52:26;;;;;;;7.53;4.53;;;;;;;;;;5044979;28;20337;-79
2024/01/09 10:54:54;;;;;;;5.38;3.95;;;;;;;;;;5044595;28;20213;-80
2024/01/09 10:57:21;;;;;;;5.28;3.45;;;;;;;;;;5044891;28;20230;-78
2024/01/09 10:59:49;;;;;;;6.10;3.60;;;;;;;;;;5043892;28;20205;-79
2024/01/09 11:02:20;;;;;;;4.68;4.05;;;;;;;;;;5043266;28;20273;-78
2024/01/09 11:04:49;;;;;;;4.55;3.35;;;;;;;;;;5042562;28;20206;-80
2024/01/09 11:07:17;;;;;;;4.57;3.45;;;;;;;;;;5044573;28;20238;-79
2024/01/09 11:09:46;;;;;;;4.25;3.67;;;;;;;;;;5043885;28;20277;-79
2024/01/09 11:12:18;;;;;;;4.65;3.42;;;;;;;;;;5044485;28;20245;-78
2024/01/09 11:14:49;;;;;;;3.90;3.30;;;;;;;;;;5041678;28;20203;-79
2024/01/09 11:17:18;;;;;;;4.30;3.30;;;;;;;;;;5044346;28;20305;-79
2024/01/09 11:19:45;;;;;;;3.83;3.45;;;;;;;;;;5043969;28;20659;-79
2024/01/09 11:22:19;;;;;;;5.43;3.95;;;;;;;;;;5043631;28;20279;-80
2024/01/09 11:24:48;;;;;;;4.32;3.92;;;;;;;;;;5044614;28;20213;-79
2024/01/09 11:27:17;;;;;;;5.18;3.83;;;;;;;;;;5044116;28;20244;-76
2024/01/09 11:29:49;;;;;;;4.25;3.78;;;;;;;;;;5044118;28;20206;-78
2024/01/09 11:32:17;;;;;;;4.97;3.65;;;;;;;;;;5044268;28;20221;-80
2024/01/09 11:34:46;;;;;;;6.15;4.65;;;;;;;;;;5044054;28;20234;-79
2024/01/09 11:37:20;;;;;;;6.60;4.70;;;;;;;;;;5044071;28;20281;-79
2024/01/09 11:39:48;;;;;;;6.35;4.45;;;;;;;;;;5041499;28;20237;-80
2024/01/09 11:42:16;;;;;;;6.63;4.65;;;;;;;;;;5044443;28;20207;-79
2024/01/09 11:44:43;;;;;;;3.83;3.20;;;;;;;;;;5043468;28;20273;-80
2024/01/09 11:47:11;;;;;;;4.50;3.55;;;;;;;;;;5043006;28;20261;-78
2024/01/09 11:49:38;;;;;;;4.53;3.58;;;;;;;;;;5044024;28;20803;-79
2024/01/09 11:52:06;;;;;;;4.97;3.75;;;;;;;;;;5044002;28;20293;-77
2024/01/09 11:54:35;;;;;;;5.78;3.95;;;;;;;;;;5044468;28;20297;-80
2024/01/09 11:57:03;;;;;;;3.92;3.10;;;;;;;;;;5043855;28;20305;-79
2024/01/09 11:59:32;;;;;;;5.28;4.10;;;;;;;;;;5044623;28;20656;-81
2024/01/09 12:01:59;;;;;;;4.15;3.60;;;;;;;;;;5040945;28;20235;-79
2024/01/09 12:04:27;;;;;;;5.50;4.47;;;;;;;;;;5045215;28;20229;-78
2024/01/09 12:06:54;;;;;;;4.78;3.45;;;;;;;;;;5043325;28;20230;-79
2024/01/09 12:09:25;;;;;;;4.43;4.00;;;;;;;;;;5046808;28;20330;-81
2024/01/09 12:11:54;;;;;;;4.70;3.50;;;;;;;;;;5047645;28;20218;-80
2024/01/09 12:14:21;;;;;;;4.00;2.80;;;;;;;;;;5048801;28;20670;-80
2024/01/09 12:16:50;;;;;;;4.90;3.50;;;;;;;;;;5047348;28;20256;-79
2024/01/09 12:19:19;;;;;;;6.18;3.80;;;;;;;;;;5048707;28;20289;-80
2024/01/09 12:21:47;;;;;;;4.28;3.83;;;;;;;;;;5047896;28;20206;-81
2024/01/09 12:24:15;;;;;;;6.97;4.00;;;;;;;;;;5048737;28;20210;-79
2024/01/09 12:26:48;;;;;;;3.42;2.88;;;;;;;;;;5046444;28;20230;-80
2024/01/09 12:29:17;;;;;;;5.88;3.60;;;;;;;;;;5052416;28;20206;-81
2024/01/09 12:31:48;;;;;;;4.95;3.97;;;;;;;;;;5052010;28;20277;-83
2024/01/09 12:34:17;;;;;;;5.45;4.00;;;;;;;;;;5049460;28;20210;-81
2024/01/09 12:36:45;;;;;;;6.93;4.32;;;;;;;;;;5050123;28;20253;-81
2024/01/09 12:39:19;;;;;;;4.28;3.85;;;;;;;;;;5047353;28;20210;-81
2024/01/09 12:41:47;;;;;;;4.65;3.50;;;;;;;;;;5049304;28;20225;-79
2024/01/09 12:44:16;;;;;;;4.68;3.95;;;;;;;;;;5048598;28;20629;-80
2024/01/09 12:46:47;;;;;;;4.70;3.88;;;;;;;;;;5043724;28;20226;-81
2024/01/09 12:49:18;;;;;;;3.63;3.22;;;;;;;;;;5047530;28;20206;-79
2024/01/09 12:51:46;;;;;;;4.72;4.22;;;;;;;;;;5046899;28;20224;-78
2024/01/09 12:54:17;;;;;;;2.90;2.70;;;;;;;;;;5052403;28;20202;-81
2024/01/09 12:56:45;;;;;;;2.83;2.38;;;;;;;;;;5049010;28;20206;-80
2024/01/09 12:59:16;;;;;;;2.90;2.65;;;;;;;;;;5037147;28;20317;-81
2024/01/09 13:01:46;;;;;;;4.70;3.50;;;;;;;;;;5036735;28;20229;-79
2024/01/09 13:04:16;;;;;;;4.25;2.83;;;;;;;;;;5053594;28;20607;-80
2024/01/09 13:06:44;;;;;;;3.58;2.95;;;;;;;;;;5043997;28;20207;-78
2024/01/09 13:09:12;;;;;;;3.20;2.90;;;;;;;;;;5047058;28;20230;-78
2024/01/09 13:11:42;;;;;;;3.97;2.33;;;;;;;;;;5047086;28;20236;-79
2024/01/09 13:14:11;;;;;;;2.33;2.15;;;;;;;;;;5043559;28;20210;-78
2024/01/09 13:16:39;;;;;;;2.47;2.28;;;;;;;;;;5047723;28;20233;-79
2024/01/09 13:19:09;;;;;;;5.18;3.25;;;;;;;;;;5046784;28;20202;-77
2024/01/09 13:21:37;;;;;;;2.67;2.45;;;;;;;;;;5047744;28;20218;-80
2024/01/09 13:24:07;;;;;;;3.45;2.65;;;;;;;;;;5047256;28;20206;-79
2024/01/09 13:26:35;;;;;;;2.67;2.47;;;;;;;;;;5046877;28;20203;-79
2024/01/09 13:29:03;;;;;;;2.85;2.58;;;;;;;;;;5046790;28;21096;-79
2024/01/09 13:31:31;;;;;;;2.30;1.90;;;;;;;;;;5046360;28;20270;-79
2024/01/09 13:33:59;;;;;;;3.33;2.30;;;;;;;;;;5047941;28;20573;-78
2024/01/09 13:36:28;;;;;;;3.25;2.58;;;;;;;;;;5047156;28;20296;-79
2024/01/09 13:38:56;;;;;;;3.38;3.08;;;;;;;;;;5046570;28;20282;-78
2024/01/09 13:41:23;;;;;;;4.18;3.30;;;;;;;;;;5047517;28;20667;-77
2024/01/09 13:43:50;;;;;;;4.35;3.95;;;;;;;;;;5045539;28;20261;-77
2024/01/09 13:46:18;;;;;;;3.30;2.80;;;;;;;;;;5046858;28;20695;-78
2024/01/09 13:48:46;;;;;;;2.90;2.70;;;;;;;;;;5046862;28;20484;-78
2024/01/09 13:51:14;;;;;;;3.80;2.70;;;;;;;;;;5046786;28;20238;-79
2024/01/09 13:53:43;;;;;;;3.00;2.67;;;;;;;;;;5046971;28;20664;-79
2024/01/09 13:56:10;;;;;;;3.70;2.83;;;;;;;;;;5043102;28;20238;-77
2024/01/09 13:58:38;;;;;;;4.30;3.17;;;;;;;;;;5045828;28;20854;-78
2024/01/09 14:01:05;;;;;;;3.63;3.33;;;;;;;;;;5047096;28;20274;-77
2024/01/09 14:03:33;;;;;;;2.45;2.25;;;;;;;;;;5043183;28;20269;-78
2024/01/09 14:06:01;;;;;;;3.47;3.15;;;;;;;;;;5043378;28;20237;-79
2024/01/09 14:08:28;;;;;;;3.10;2.72;;;;;;;;;;5040887;28;20670;-79
2024/01/09 14:10:57;;;;;;;3.33;2.30;;;;;;;;;;5040595;28;20245;-79
2024/01/09 14:13:24;;;;;;;2.40;2.20;;;;;;;;;;5041024;28;20301;-79
2024/01/09 14:15:54;;;;;;;2.28;2.00;;;;;;;;;;5040470;28;20249;-78
2024/01/09 14:18:21;;;;;;;5.05;3.13;;;;;;;;;;5039454;28;20222;-79
2024/01/09 14:20:49;;;;;;;2.60;2.40;;;;;;;;;;5038205;28;20310;-78
2024/01/09 14:23:17;;;;;;;2.65;2.40;;;;;;;;;;5037572;28;20289;-78
2024/01/09 14:25:45;;;;;;;3.53;3.17;;;;;;;;;;5037713;28;20210;-78
2024/01/09 14:28:13;;;;;;;3.22;2.88;;;;;;;;;;5037103;28;20264;-79
2024/01/09 14:30:41;;;;;;;2.10;1.90;;;;;;;;;;5036303;28;20585;-78
2024/01/09 14:33:08;;;;;;;2.78;2.58;;;;;;;;;;5037128;28;20717;-78
2024/01/09 14:35:37;;;;;;;2.80;2.25;;;;;;;;;;5037184;28;20579;-78
2024/01/09 14:38:04;;;;;;;4.65;2.80;;;;;;;;;;5037322;28;20231;-78
2024/01/09 14:40:32;;;;;;;2.65;2.45;;;;;;;;;;5037367;28;20289;-78
2024/01/09 14:43:01;;;;;;;1.90;1.80;;;;;;;;;;5036121;28;20212;-78
2024/01/09 14:45:30;;;;;;;2.75;2.47;;;;;;;;;;5037114;28;20206;-78
2024/01/09 14:47:57;;;;;;;3.80;2.83;;;;;;;;;;5035961;28;20312;-78